Time;durP1;ratioP1;P1;durP2;ratioP2;P2;SDS_P1;SDS_P2;PMS_P1;PMS_P2;Temp;Humidity;BMP_temperature;BMP_pressure;BME280_temperature;BME280_humidity;BME280_pressure;Samples;Min_cycle;Max_cycle;Signal;HPM_P1;HPM_P2
2022/10/28 10:39:36;;;;;;;11.13;2.50;;;;;;;19.99;58.33;97244.47;2086739;28;20581;-67
2022/10/28 10:40:49;;;;;;;5.55;2.00;;;;;;;20.23;56.75;97261.19;2073875;28;20567;-67
2022/10/28 10:41:52;;;;;;;12.35;3.00;;;;;;;20.51;57.23;97271.56;2069833;28;20705;-67
2022/10/28 10:43:16;;;;;;;17.27;2.88;;;;;;;20.67;57.04;97269.44;2068465;28;20649;-67
2022/10/28 10:44:20;;;;;;;12.68;2.53;;;;;;;20.72;56.74;97271.75;2074907;28;20243;-67
2022/10/28 11:01:38;;;;;;;9.25;2.29;;;;;;;20.54;57.41;97245.66;4027550;27;5228738;-67
2022/10/28 11:02:45;;;;;;;8.13;2.35;;;;;;;21.53;54.52;97253.97;2107464;28;20322;-67
2022/10/28 11:03:55;;;;;;;15.93;3.30;;;;;;;22.40;52.61;97257.66;2106917;28;20199;-67
2022/10/28 11:05:02;;;;;;;13.60;2.50;;;;;;;22.06;53.61;97257.75;2105763;28;20725;-67
2022/10/28 11:06:06;;;;;;;5.65;2.45;;;;;;;21.89;53.17;97255.63;2105745;28;20223;-67
2022/10/28 11:37:36;;;;;;;13.13;2.40;;;;;;;20.66;57.43;97216.50;2100373;27;20554;-66
2022/10/28 11:38:52;;;;;;;15.70;3.03;;;;;;;21.37;56.26;97211.84;2097719;28;20235;-66
2022/10/28 11:40:16;;;;;;;16.80;2.70;;;;;;;22.13;54.24;97199.59;2087935;28;21649;-68
2022/10/28 11:42:10;;;;;;;9.75;3.25;;;;;;;22.21;55.18;97213.09;2080322;28;20653;-68
2022/10/28 11:43:14;;;;;;;14.40;3.20;;;;;;;22.21;55.43;97218.44;2076376;28;20235;-68
2022/10/28 11:44:22;;;;;;;14.23;2.80;;;;;;;22.13;57.02;97218.19;2079823;28;20228;-69
2022/10/28 11:45:30;;;;;;;9.30;2.65;;;;;;;22.13;57.93;97215.53;2073185;28;20699;-69
2022/10/28 11:46:50;;;;;;;10.75;3.05;;;;;;;22.28;57.36;97216.09;2071956;28;20280;-68
2022/10/28 11:47:58;;;;;;;19.30;3.22;;;;;;;22.50;57.86;97223.16;2073297;28;20272;-68
2022/10/28 11:49:25;;;;;;;24.38;3.78;;;;;;;22.77;57.03;97217.28;2072882;28;20391;-68
2022/10/28 11:50:44;;;;;;;23.27;3.50;;;;;;;23.09;55.87;97202.19;2071752;28;20296;-68
2022/10/28 11:52:01;;;;;;;21.83;3.88;;;;;;;23.45;54.33;97214.13;2072827;28;20212;-68
2022/10/28 11:53:32;;;;;;;97.78;49.75;;;;;;;24.24;52.63;97208.94;2076649;28;20670;-68
2022/10/28 11:55:01;;;;;;;39.47;9.25;;;;;;;25.42;49.13;97217.59;2073350;28;20233;-68
2022/10/28 11:56:27;;;;;;;39.78;6.55;;;;;;;25.70;47.77;97217.53;2079474;28;20496;-68
2022/10/28 11:57:52;;;;;;;28.10;4.65;;;;;;;26.20;47.04;97222.44;2081412;28;20208;-67
2022/10/28 11:59:15;;;;;;;18.27;2.83;;;;;;;27.29;44.24;97220.41;2076455;28;20208;-66
2022/10/28 12:00:49;;;;;;;9.43;2.72;;;;;;;27.40;42.82;97222.00;2074087;28;20245;-66
2022/10/28 12:01:56;;;;;;;9.48;2.80;;;;;;;28.07;41.35;97225.75;2086455;28;20293;-67
2022/10/28 12:03:16;;;;;;;15.20;3.08;;;;;;;27.86;41.14;97225.16;2084667;28;20196;-67
2022/10/28 12:04:35;;;;;;;14.02;2.60;;;;;;;27.64;41.66;97221.25;2079609;28;20193;-66
2022/10/28 12:05:49;;;;;;;20.42;2.70;;;;;;;28.13;41.06;97217.03;2076940;28;20221;-67
2022/10/28 12:07:02;;;;;;;19.33;2.78;;;;;;;28.21;40.97;97208.16;2077260;28;20205;-65
2022/10/28 12:08:33;;;;;;;12.23;2.95;;;;;;;27.83;42.16;97213.91;2081957;28;20200;-64
2022/10/28 12:10:00;;;;;;;27.30;3.47;;;;;;;27.00;43.26;97213.53;2078872;28;20309;-65
2022/10/28 12:11:11;;;;;;;20.55;3.40;;;;;;;26.27;44.67;97216.47;2081824;28;20295;-65
2022/10/28 12:12:48;;;;;;;24.63;3.65;;;;;;;25.53;45.70;97184.44;2082678;28;20232;-65
2022/10/28 12:14:16;;;;;;;8.73;2.80;;;;;;;23.95;49.62;97185.78;2066723;28;20199;-64
2022/10/28 12:15:37;;;;;;;18.85;2.53;;;;;;;24.62;48.94;97180.53;2079190;28;20296;-64
2022/10/28 12:17:02;;;;;;;17.75;2.72;;;;;;;24.93;48.08;97175.00;2081098;28;20918;-64
2022/10/28 12:24:53;;;;;;;15.00;2.38;;;;;;;26.36;44.38;97157.50;2074561;28;20182;-64
2022/10/28 12:25:57;;;;;;;9.65;2.60;;;;;;;26.45;43.97;97162.91;2081861;28;20200;-65
2022/10/28 12:27:05;;;;;;;15.93;2.50;;;;;;;26.72;43.79;97178.84;2078503;28;20201;-66
2022/10/28 12:28:18;;;;;;;10.77;2.80;;;;;;;26.17;44.31;97192.47;2076371;28;20222;-64
2022/10/28 12:29:23;;;;;;;6.18;2.38;;;;;;;26.47;44.21;97183.19;2081831;28;20201;-65
2022/10/28 12:30:33;;;;;;;9.48;2.53;;;;;;;26.93;43.63;97174.13;2081457;28;20839;-64
2022/10/28 12:31:44;;;;;;;11.10;2.30;;;;;;;27.54;43.33;97186.50;2078380;28;20201;-65
2022/10/28 12:32:48;;;;;;;15.20;3.10;;;;;;;27.93;42.92;97185.09;2079835;28;20251;-65
2022/10/28 12:33:55;;;;;;;11.80;2.50;;;;;;;27.49;42.19;97188.84;2090491;28;20284;-64
2022/10/28 12:35:14;;;;;;;16.40;2.70;;;;;;;27.64;42.57;97180.16;2088300;28;20749;-64
2022/10/28 12:36:25;;;;;;;10.63;2.47;;;;;;;27.44;42.91;97171.53;2076108;28;20236;-64
2022/10/28 12:37:35;;;;;;;10.88;3.35;;;;;;;27.22;43.23;97155.00;2080526;28;20316;-64
2022/10/28 12:38:55;;;;;;;18.92;3.08;;;;;;;27.91;41.77;97167.47;2078733;28;20275;-64
2022/10/28 12:40:06;;;;;;;8.82;2.45;;;;;;;27.64;42.60;97172.13;2076440;28;20313;-64
2022/10/28 12:41:16;;;;;;;12.63;2.67;;;;;;;27.72;42.40;97148.00;2076443;28;20291;-64
2022/10/28 12:49:19;;;;;;;8.50;3.45;;;;;;;27.25;41.96;97178.84;2075376;28;20204;-64
2022/10/28 12:50:26;;;;;;;8.82;3.20;;;;;;;26.97;43.05;97189.75;2078985;28;20252;-64
2022/10/28 12:51:35;;;;;;;13.55;4.13;;;;;;;27.35;42.06;97182.22;2077425;28;20235;-64
2022/10/28 12:53:01;;;;;;;32.83;4.10;;;;;;;27.34;42.23;97185.06;2071111;28;20190;-64
2022/10/28 12:54:57;;;;;;;19.70;3.20;;;;;;;27.39;41.95;97177.41;2072619;28;20617;-64
2022/10/28 12:56:00;;;;;;;16.30;3.13;;;;;;;27.42;41.34;97174.41;2065940;28;20256;-64
2022/10/28 12:57:08;;;;;;;34.05;12.55;;;;;;;27.58;41.66;97181.66;2066745;28;20361;-67
2022/10/28 12:58:15;;;;;;;20.73;3.50;;;;;;;27.38;41.59;97175.69;2055437;28;20295;-67
2022/10/28 12:59:28;;;;;;;24.15;5.00;;;;;;;27.18;41.37;97175.09;2056399;28;20199;-65
2022/10/28 13:00:42;;;;;;;12.02;4.05;;;;;;;27.71;41.46;97183.88;2064913;28;20253;-65
2022/10/28 13:01:48;;;;;;;16.23;3.28;;;;;;;27.72;41.17;97180.19;2069191;28;20201;-65
2022/10/28 13:03:03;;;;;;;10.57;3.50;;;;;;;27.97;41.15;97166.81;2065436;28;20269;-65
2022/10/28 13:04:04;;;;;;;12.45;2.72;;;;;;;28.11;41.00;97176.94;2066262;28;20640;-65
2022/10/28 13:05:12;;;;;;;13.27;2.55;;;;;;;28.28;40.75;97169.72;2065405;28;20637;-65
2022/10/28 13:06:22;;;;;;;10.63;2.90;;;;;;;28.22;41.13;97180.31;2065026;28;20748;-65
2022/10/28 13:07:31;;;;;;;10.00;2.22;;;;;;;27.95;41.16;97172.34;2066569;28;20815;-65
2022/10/28 13:08:47;;;;;;;11.63;2.95;;;;;;;27.24;42.21;97176.31;2058006;28;20199;-65
2022/10/28 13:10:10;;;;;;;10.38;2.55;;;;;;;27.43;42.98;97172.56;2062060;28;20252;-66
2022/10/28 13:11:17;;;;;;;15.40;2.65;;;;;;;27.66;42.16;97175.47;2067356;28;20569;-65
2022/10/28 13:12:27;;;;;;;17.50;2.47;;;;;;;27.56;42.28;97172.94;2065887;28;20233;-65
2022/10/28 13:13:55;;;;;;;10.23;3.33;;;;;;;27.42;42.56;97163.66;2066090;28;20287;-65
2022/10/28 13:14:59;;;;;;;16.35;2.70;;;;;;;27.33;42.52;97165.44;2066557;28;20234;-65
2022/10/28 13:16:09;;;;;;;15.65;3.05;;;;;;;26.86;43.27;97161.38;2069067;28;20233;-65
2022/10/28 13:17:33;;;;;;;20.52;3.10;;;;;;;27.29;43.43;97169.47;2063244;28;20270;-65
2022/10/28 13:18:37;;;;;;;14.13;3.45;;;;;;;27.08;43.04;97169.84;2066176;28;20716;-65
2022/10/28 13:20:00;;;;;;;15.52;2.90;;;;;;;27.40;43.33;97170.19;2066773;28;20240;-65
2022/10/28 13:21:34;;;;;;;22.70;3.28;;;;;;;27.66;43.04;97167.44;2064563;28;20312;-65
2022/10/28 13:22:45;;;;;;;14.02;2.90;;;;;;;27.47;42.70;97163.19;2065437;28;20198;-65
2022/10/28 13:24:04;;;;;;;10.65;2.97;;;;;;;27.34;43.08;97163.63;2067119;28;20205;-65
2022/10/28 13:25:39;;;;;;;8.10;2.33;;;;;;;27.26;43.61;97160.91;2065265;28;20277;-65
2022/10/28 13:26:43;;;;;;;29.70;2.95;;;;;;;27.58;42.90;97152.16;2057638;28;20504;-65
2022/10/28 13:27:45;;;;;;;9.45;3.38;;;;;;;27.78;43.14;97149.19;2070541;28;20205;-65
2022/10/28 13:28:50;;;;;;;19.05;3.20;;;;;;;27.31;42.79;97150.53;2072004;28;20245;-65
2022/10/28 13:35:03;;;;;;;24.50;4.25;;;;;;;27.34;44.43;97161.78;2072570;28;20190;-65
2022/10/28 13:36:15;;;;;;;10.80;2.67;;;;;;;27.35;43.54;97159.91;2071238;28;20214;-65
2022/10/28 13:37:21;;;;;;;46.55;4.57;;;;;;;27.76;43.31;97144.00;2075057;28;20356;-65
2022/10/28 13:38:25;;;;;;;17.13;3.05;;;;;;;28.34;43.02;97149.41;2075115;28;20214;-65
2022/10/28 13:39:27;;;;;;;14.63;3.42;;;;;;;28.06;43.13;97163.19;2075887;28;20232;-65
2022/10/28 13:40:32;;;;;;;10.43;3.10;;;;;;;27.83;43.59;97160.25;2077099;28;20232;-65
2022/10/28 13:41:37;;;;;;;11.75;2.80;;;;;;;27.64;43.76;97169.44;2073739;28;20320;-65
2022/10/28 13:42:47;;;;;;;12.88;3.13;;;;;;;27.35;44.78;97167.97;2076130;28;20190;-65
2022/10/28 13:43:49;;;;;;;11.45;2.90;;;;;;;27.63;44.25;97170.44;2076227;28;20770;-65
2022/10/28 13:44:50;;;;;;;10.48;2.35;;;;;;;27.68;42.87;97171.63;2075675;28;20202;-65
2022/10/28 13:45:54;;;;;;;12.15;2.85;;;;;;;27.60;43.53;97166.22;2075861;28;20294;-65
2022/10/28 13:46:58;;;;;;;17.48;2.75;;;;;;;27.50;43.20;97166.41;2073154;28;20646;-65
2022/10/28 13:53:09;;;;;;;9.43;1.98;;;;;;;27.12;44.36;97160.53;2072587;28;20260;-65
2022/10/28 13:54:24;;;;;;;19.25;3.20;;;;;;;26.77;44.12;97166.88;2072772;28;20225;-65
2022/10/28 13:55:41;;;;;;;9.95;2.70;;;;;;;26.52;44.96;97175.50;2071452;28;20216;-65
2022/10/28 13:56:47;;;;;;;11.55;2.63;;;;;;;26.29;45.42;97164.47;2074358;28;20200;-65
2022/10/28 13:58:23;;;;;;;13.15;3.35;;;;;;;26.14;45.53;97171.38;2073999;28;20214;-65
2022/10/28 14:06:06;;;;;;;11.60;4.30;;;;;;;25.95;46.35;97170.50;2063582;28;20225;-65
2022/10/28 14:07:11;;;;;;;14.32;3.17;;;;;;;26.22;46.78;97174.97;2065795;28;20566;-65
2022/10/28 14:08:29;;;;;;;18.98;4.10;;;;;;;26.31;45.81;97175.03;2065110;28;20277;-65
2022/10/28 14:09:34;;;;;;;15.23;2.83;;;;;;;26.08;46.29;97180.88;2065951;28;20201;-65
2022/10/28 14:10:38;;;;;;;20.40;3.38;;;;;;;26.04;46.58;97174.94;2065421;28;20240;-66
2022/10/28 14:11:40;;;;;;;17.13;3.13;;;;;;;25.82;46.96;97156.69;2066802;28;20297;-67
2022/10/28 14:12:46;;;;;;;22.60;3.45;;;;;;;25.86;46.81;97174.94;2066686;28;20288;-67
2022/10/28 14:13:58;;;;;;;30.58;4.75;;;;;;;25.73;47.13;97172.63;2065220;28;20204;-67
2022/10/28 14:15:09;;;;;;;21.15;4.63;;;;;;;25.60;47.41;97180.19;2066210;28;20680;-67
2022/10/28 14:16:32;;;;;;;26.50;3.75;;;;;;;25.48;47.67;97173.38;2066986;28;20226;-67
2022/10/28 14:29:22;;;;;;;19.00;2.70;;;;;;;25.13;49.03;97190.94;2066388;28;20186;-68
2022/10/28 14:30:23;;;;;;;18.23;2.78;;;;;;;24.97;49.11;97175.53;2063368;28;20222;-68
2022/10/28 14:31:41;;;;;;;14.93;2.72;;;;;;;25.10;50.11;97184.91;2063358;28;20236;-67
2022/10/28 14:32:49;;;;;;;20.08;3.55;;;;;;;24.94;50.37;97185.53;2065557;28;20312;-68
2022/10/28 14:34:10;;;;;;;11.85;2.90;;;;;;;25.04;50.32;97189.97;2064821;28;20223;-68
2022/10/28 14:35:14;;;;;;;21.38;3.20;;;;;;;25.07;50.07;97193.19;2062716;28;20254;-67
2022/10/28 14:36:15;;;;;;;18.58;3.78;;;;;;;25.10;49.78;97195.59;2065475;28;20920;-67
2022/10/28 14:37:30;;;;;;;22.80;3.80;;;;;;;25.02;49.80;97191.97;2067317;28;20387;-67
2022/10/28 14:39:03;;;;;;;50.70;5.15;;;;;;;24.94;49.76;97188.19;2062281;28;20218;-67
2022/10/28 14:40:29;;;;;;;21.95;3.50;;;;;;;24.77;49.83;97191.59;2062683;28;20223;-67
2022/10/28 14:48:39;;;;;;;14.23;3.35;;;;;;;24.16;51.79;97182.94;2062548;28;20345;-67
2022/10/28 14:50:02;;;;;;;12.30;2.75;;;;;;;24.19;53.64;97189.84;2063264;28;20235;-68
2022/10/28 14:51:10;;;;;;;24.15;3.40;;;;;;;24.29;53.33;97188.03;2058551;28;20198;-67
2022/10/28 14:52:17;;;;;;;14.02;3.00;;;;;;;24.35;53.23;97184.75;2059455;28;20240;-67
2022/10/28 14:53:27;;;;;;;14.20;3.30;;;;;;;24.38;52.99;97184.50;2065032;28;20209;-67
2022/10/28 14:54:31;;;;;;;12.80;3.00;;;;;;;24.48;52.21;97188.97;2065543;28;20240;-67
2022/10/28 14:55:38;;;;;;;20.13;3.85;;;;;;;24.28;51.79;97168.50;2066140;28;20237;-67
2022/10/28 14:56:41;;;;;;;35.75;4.28;;;;;;;24.39;53.47;97182.66;2067923;28;20649;-67
2022/10/28 14:57:45;;;;;;;13.02;3.05;;;;;;;24.27;53.73;97180.16;2064785;28;20314;-68
2022/10/28 14:58:47;;;;;;;18.00;3.70;;;;;;;24.19;53.29;97177.34;2063163;28;20237;-67
2022/10/28 15:05:04;;;;;;;18.48;4.05;;;;;;;24.65;53.10;97185.59;2064785;28;20634;-67
2022/10/28 15:06:42;;;;;;;14.30;2.75;;;;;;;24.61;52.99;97173.50;2064881;28;20634;-67
2022/10/28 15:07:44;;;;;;;15.82;2.78;;;;;;;24.05;54.52;97177.75;2053664;28;20296;-66
2022/10/28 15:08:45;;;;;;;29.23;4.05;;;;;;;24.07;54.65;97173.97;2062046;28;20237;-66
2022/10/28 15:09:52;;;;;;;12.15;3.30;;;;;;;24.17;54.66;97179.31;2065729;28;20284;-67
2022/10/28 15:10:54;;;;;;;17.08;3.38;;;;;;;23.99;54.82;97173.00;2073601;28;20233;-67
2022/10/28 15:11:59;;;;;;;10.65;2.75;;;;;;;23.87;55.26;97178.44;2070234;28;20233;-67
2022/10/28 15:13:03;;;;;;;13.68;3.22;;;;;;;23.87;55.38;97166.91;2070884;28;20226;-67
2022/10/28 15:14:23;;;;;;;8.05;2.58;;;;;;;23.91;55.44;97163.88;2073990;28;20724;-67
2022/10/28 15:15:27;;;;;;;10.73;2.63;;;;;;;23.96;55.34;97176.81;2072941;28;20226;-67
2022/10/28 15:16:29;;;;;;;16.35;2.92;;;;;;;23.71;56.31;97167.47;2072139;28;20756;-67
2022/10/28 15:29:04;;;;;;;10.30;3.05;;;;;;;24.16;57.58;97168.78;2067192;28;20182;-67
2022/10/28 15:30:19;;;;;;;21.42;3.80;;;;;;;24.12;57.84;97165.56;2065669;28;20768;-67
2022/10/28 15:31:20;;;;;;;17.73;3.10;;;;;;;24.12;57.95;97160.22;2067936;28;20251;-67
2022/10/28 15:32:22;;;;;;;12.52;3.58;;;;;;;24.25;56.60;97168.78;2067610;28;20290;-67
2022/10/28 15:33:31;;;;;;;13.18;2.78;;;;;;;24.17;56.47;97165.97;2064218;28;20343;-67
2022/10/28 15:34:32;;;;;;;18.55;3.45;;;;;;;24.12;57.37;97168.22;2066968;28;20345;-67
2022/10/28 15:53:41;;;;;;;10.90;2.47;;;;;;;22.20;60.93;97168.88;2063978;28;20257;-67
2022/10/28 15:54:57;;;;;;;17.80;2.85;;;;;;;21.98;61.31;97149.38;2068201;28;20233;-67
2022/10/28 15:56:17;;;;;;;17.23;2.85;;;;;;;22.05;61.19;97162.16;2064425;28;20284;-67
2022/10/28 15:57:22;;;;;;;12.68;2.55;;;;;;;21.98;61.70;97173.31;2063925;28;20398;-67
2022/10/28 15:58:31;;;;;;;16.50;3.78;;;;;;;21.89;61.99;97173.22;2070078;28;20355;-72
2022/10/28 15:59:33;;;;;;;11.95;3.10;;;;;;;21.81;61.71;97160.56;2064616;28;20720;-68
2022/10/28 16:00:49;;;;;;;19.73;3.20;;;;;;;21.71;62.55;97175.59;2072089;28;20243;-67
2022/10/28 16:01:54;;;;;;;10.02;4.65;;;;;;;21.60;62.52;97173.78;2073880;28;20212;-67
2022/10/28 16:03:04;;;;;;;18.13;2.83;;;;;;;21.49;63.03;97174.63;2071218;28;20201;-66
2022/10/28 16:04:34;;;;;;;10.18;3.25;;;;;;;21.28;63.72;97159.47;2074517;28;20189;-66
2022/10/28 16:05:38;;;;;;;12.68;2.90;;;;;;;21.10;63.17;97172.38;2071303;28;20218;-67
2022/10/28 16:06:40;;;;;;;18.05;4.57;;;;;;;20.90;64.49;97158.06;2071681;28;20205;-66
2022/10/28 16:07:44;;;;;;;11.95;2.85;;;;;;;20.95;64.72;97158.53;2071403;28;20854;-67
2022/10/28 16:08:46;;;;;;;12.10;3.42;;;;;;;21.07;64.01;97177.13;2074420;28;20232;-67
2022/10/28 16:09:49;;;;;;;22.00;3.25;;;;;;;20.98;64.08;97162.75;2074067;28;20704;-67
2022/10/28 16:10:55;;;;;;;12.60;3.22;;;;;;;21.02;63.99;97175.66;2073936;28;20244;-66
2022/10/28 16:12:00;;;;;;;13.23;3.60;;;;;;;20.97;63.88;97172.50;2074582;28;20232;-66
2022/10/28 16:13:03;;;;;;;17.42;3.97;;;;;;;20.74;64.24;97142.47;2076734;28;20251;-67
2022/10/28 16:14:25;;;;;;;15.05;2.90;;;;;;;20.88;64.60;97168.75;2073649;28;20628;-66
2022/10/28 16:15:26;;;;;;;15.30;2.28;;;;;;;20.81;64.84;97172.03;2074912;28;20688;-66
2022/10/28 16:16:32;;;;;;;10.85;3.20;;;;;;;20.71;64.79;97172.75;2073520;28;20232;-66
2022/10/28 16:29:04;;;;;;;17.85;3.90;;;;;;;20.52;64.49;97189.22;2076644;28;20173;-69
2022/10/28 16:30:06;;;;;;;15.48;3.28;;;;;;;20.41;65.54;97172.44;2071154;28;20309;-69
2022/10/28 16:31:15;;;;;;;12.75;2.65;;;;;;;20.38;66.10;97184.97;2070801;28;20252;-69
2022/10/28 16:32:31;;;;;;;10.63;3.10;;;;;;;20.37;66.87;97193.03;2075559;28;20280;-69
2022/10/28 16:33:37;;;;;;;14.13;3.15;;;;;;;20.34;66.19;97183.50;2076547;28;20201;-69
2022/10/28 16:34:38;;;;;;;16.67;2.88;;;;;;;20.33;65.81;97192.41;2076478;28;20275;-69
2022/10/28 16:41:04;;;;;;;18.95;2.55;;;;;;;20.05;66.66;97207.75;2073143;28;20226;-68
2022/10/28 16:42:07;;;;;;;18.83;3.25;;;;;;;20.08;66.08;97209.31;2074245;28;20716;-68
2022/10/28 16:43:18;;;;;;;11.00;2.97;;;;;;;20.03;66.40;97208.81;2075506;28;20228;-68
2022/10/28 16:44:21;;;;;;;14.63;2.58;;;;;;;20.07;66.13;97207.63;2074042;28;20224;-68
2022/10/28 16:45:22;;;;;;;10.25;2.67;;;;;;;20.15;66.09;97215.00;2073852;28;20304;-67
2022/10/28 16:46:24;;;;;;;12.95;2.97;;;;;;;20.14;65.91;97214.16;2075674;28;20291;-67
2022/10/28 16:47:25;;;;;;;13.13;3.45;;;;;;;20.15;66.23;97213.22;2078154;28;20214;-67
2022/10/28 16:48:29;;;;;;;25.80;3.40;;;;;;;20.15;66.19;97212.34;2076237;28;20246;-67
2022/10/28 16:49:30;;;;;;;11.23;2.85;;;;;;;20.03;66.61;97209.66;2075014;28;20209;-67
2022/10/28 16:50:32;;;;;;;19.52;3.00;;;;;;;20.11;66.57;97221.50;2069797;28;20629;-67
2022/10/28 16:51:33;;;;;;;18.10;2.83;;;;;;;20.04;66.92;97221.94;2075388;28;20244;-67
2022/10/28 16:52:35;;;;;;;11.63;2.85;;;;;;;19.99;67.21;97213.50;2074680;28;20235;-67
2022/10/28 16:53:37;;;;;;;10.25;3.05;;;;;;;19.88;67.03;97201.06;2067480;28;20237;-68
2022/10/28 16:54:39;;;;;;;11.00;3.17;;;;;;;19.92;67.10;97206.94;2068118;28;20241;-68
2022/10/28 16:55:40;;;;;;;17.05;3.30;;;;;;;19.89;66.99;97201.88;2068245;28;20788;-67
2022/10/28 16:56:42;;;;;;;26.38;3.50;;;;;;;19.90;66.93;97215.00;2069862;28;20345;-67
2022/10/28 16:57:43;;;;;;;19.08;3.55;;;;;;;19.87;66.70;97206.44;2070937;28;20227;-68
2022/10/28 16:58:45;;;;;;;9.77;3.30;;;;;;;19.91;66.77;97218.53;2073378;28;20600;-68
2022/10/28 17:05:06;;;;;;;9.43;3.05;;;;;;;19.72;67.05;97211.88;2076414;28;20182;-67
2022/10/28 17:06:09;;;;;;;16.35;2.95;;;;;;;19.78;66.98;97215.03;2076811;28;20301;-67
2022/10/28 17:07:15;;;;;;;13.10;3.15;;;;;;;19.71;67.07;97196.13;2077468;28;20228;-68
2022/10/28 17:08:16;;;;;;;19.33;3.13;;;;;;;19.70;67.22;97203.19;2076277;28;20817;-68
2022/10/28 17:09:41;;;;;;;16.13;3.15;;;;;;;19.62;67.13;97191.47;2071159;28;20298;-68
2022/10/28 17:10:43;;;;;;;15.48;3.28;;;;;;;19.69;67.21;97206.81;2071107;28;20222;-68
2022/10/28 17:11:44;;;;;;;15.50;2.65;;;;;;;19.67;67.20;97211.38;2073037;28;20316;-68
2022/10/28 17:12:46;;;;;;;13.68;3.60;;;;;;;19.61;67.44;97206.53;2074571;28;20201;-67
2022/10/28 17:13:48;;;;;;;18.10;3.30;;;;;;;19.54;67.79;97206.13;2073204;28;20288;-68
2022/10/28 17:14:49;;;;;;;16.42;3.00;;;;;;;19.50;67.87;97209.09;2072702;28;20249;-68
2022/10/28 17:15:52;;;;;;;19.42;3.80;;;;;;;19.50;67.65;97209.97;2069892;28;20888;-68
2022/10/28 17:16:53;;;;;;;21.58;4.00;;;;;;;19.51;67.62;97203.69;2073291;28;20296;-68
2022/10/28 17:23:00;;;;;;;9.27;2.58;;;;;;;19.53;66.88;97222.13;2074896;28;20182;-68
2022/10/28 17:24:03;;;;;;;12.15;3.00;;;;;;;19.46;67.17;97213.75;2075344;28;20197;-68
2022/10/28 17:25:05;;;;;;;12.55;2.65;;;;;;;19.41;67.66;97211.47;2079190;28;20252;-68
2022/10/28 17:26:07;;;;;;;21.25;3.88;;;;;;;19.39;67.97;97223.97;2081101;28;20370;-68
2022/10/28 17:27:08;;;;;;;13.80;2.90;;;;;;;19.21;69.16;97225.25;2070523;28;20642;-68
2022/10/28 17:28:10;;;;;;;26.40;4.05;;;;;;;18.95;69.82;97198.81;2074531;28;20285;-68
2022/10/28 17:36:04;;;;;;;17.33;4.05;;;;;;;18.64;71.83;97232.66;2069052;28;20206;-68
2022/10/28 17:37:06;;;;;;;11.73;3.35;;;;;;;18.53;71.85;97217.53;2066249;28;20248;-69
2022/10/28 17:38:08;;;;;;;19.15;4.05;;;;;;;18.54;71.92;97232.44;2074838;28;20208;-68
2022/10/28 17:39:09;;;;;;;14.60;3.65;;;;;;;18.48;72.10;97226.72;2072968;28;20301;-69
2022/10/28 17:40:18;;;;;;;16.38;3.92;;;;;;;18.48;71.74;97229.38;2067224;28;20893;-69
2022/10/28 17:41:23;;;;;;;19.15;4.93;;;;;;;18.46;71.77;97228.63;2073786;28;20203;-69
2022/10/28 17:42:24;;;;;;;14.30;4.00;;;;;;;18.39;72.16;97231.66;2073132;28;20288;-69
2022/10/28 17:43:26;;;;;;;20.52;5.07;;;;;;;18.25;72.45;97239.69;2074447;28;20289;-69
2022/10/28 17:44:27;;;;;;;18.00;3.97;;;;;;;18.33;72.20;97231.25;2073584;28;20289;-69
2022/10/28 17:45:29;;;;;;;11.65;3.10;;;;;;;18.24;72.57;97240.63;2073295;28;20248;-69
2022/10/28 17:46:30;;;;;;;11.65;3.40;;;;;;;18.16;72.90;97237.66;2070686;28;20284;-69
2022/10/28 17:47:33;;;;;;;19.00;4.63;;;;;;;18.17;72.66;97244.63;2074026;28;20198;-69
2022/10/28 17:48:34;;;;;;;28.77;4.30;;;;;;;18.20;72.63;97236.50;2074728;28;20237;-69
2022/10/28 17:49:36;;;;;;;20.95;3.90;;;;;;;18.10;72.87;97231.81;2073458;28;20226;-69
2022/10/28 17:50:42;;;;;;;11.82;3.67;;;;;;;18.16;72.86;97238.50;2077985;28;20239;-69
2022/10/28 17:51:44;;;;;;;19.52;4.70;;;;;;;18.14;73.03;97237.75;2078033;28;20292;-69
2022/10/28 17:52:45;;;;;;;18.80;3.55;;;;;;;18.08;73.00;97235.50;2078023;28;20304;-69
2022/10/28 17:53:53;;;;;;;13.43;3.85;;;;;;;18.05;73.15;97233.91;2078117;28;20468;-69
2022/10/28 17:54:54;;;;;;;20.67;4.85;;;;;;;18.05;73.07;97239.19;2076702;28;20915;-69
2022/10/28 17:56:01;;;;;;;17.05;4.68;;;;;;;18.04;73.03;97237.53;2073494;28;20280;-69
2022/10/28 17:57:03;;;;;;;17.30;4.20;;;;;;;18.01;73.03;97239.50;2071003;28;20194;-69
2022/10/28 17:58:04;;;;;;;18.25;4.35;;;;;;;18.05;72.70;97238.34;2069711;28;20304;-69
2022/10/28 17:59:06;;;;;;;19.30;4.30;;;;;;;18.10;72.38;97245.00;2075038;28;20243;-68
2022/10/28 18:00:08;;;;;;;19.90;4.50;;;;;;;18.10;72.25;97236.25;2069745;28;20300;-69
2022/10/28 18:01:10;;;;;;;31.42;9.15;;;;;;;18.07;72.33;97242.59;2070127;28;20776;-69
2022/10/28 18:02:13;;;;;;;23.95;8.23;;;;;;;17.94;72.51;97229.34;2069733;28;20565;-68
2022/10/28 18:03:15;;;;;;;24.80;7.63;;;;;;;18.04;72.52;97244.59;2071346;28;20236;-69
2022/10/28 18:04:16;;;;;;;15.63;5.03;;;;;;;18.04;72.40;97237.53;2072903;28;20229;-69
2022/10/28 18:05:18;;;;;;;21.30;3.80;;;;;;;18.15;71.64;97243.88;2072468;28;20319;-69
2022/10/28 18:06:19;;;;;;;18.95;3.67;;;;;;;18.09;71.12;97227.50;2073306;28;20744;-69
2022/10/28 18:07:21;;;;;;;22.20;4.57;;;;;;;18.23;70.84;97236.28;2071745;28;20221;-69
2022/10/28 18:08:22;;;;;;;13.25;3.13;;;;;;;18.23;70.52;97234.50;2069429;28;20251;-67
2022/10/28 18:09:24;;;;;;;35.78;4.75;;;;;;;18.35;70.35;97239.94;2070475;28;20228;-66
2022/10/28 18:10:25;;;;;;;16.63;3.88;;;;;;;18.36;70.30;97239.81;2072175;28;20263;-66
2022/10/28 18:11:30;;;;;;;12.95;4.10;;;;;;;18.36;70.52;97231.88;2070054;28;20222;-66
2022/10/28 18:12:31;;;;;;;26.85;4.00;;;;;;;18.42;70.34;97242.06;2074852;28;20202;-66
2022/10/28 18:13:36;;;;;;;16.17;3.78;;;;;;;18.41;70.33;97236.84;2074529;28;20246;-68
2022/10/28 18:14:38;;;;;;;18.40;4.50;;;;;;;18.50;70.19;97240.66;2074114;28;20264;-69
2022/10/28 18:15:39;;;;;;;13.20;3.65;;;;;;;18.49;70.13;97246.94;2072142;28;20285;-68
2022/10/28 18:16:41;;;;;;;14.40;3.45;;;;;;;18.47;70.20;97240.91;2075068;28;20295;-69
2022/10/28 18:23:03;;;;;;;16.13;3.45;;;;;;;18.54;70.24;97231.59;2071012;28;20277;-69
2022/10/28 18:24:05;;;;;;;11.30;3.38;;;;;;;18.56;70.11;97234.97;2076368;28;20203;-69
2022/10/28 18:25:07;;;;;;;13.80;4.03;;;;;;;18.58;70.00;97241.00;2074148;28;20245;-69
2022/10/28 18:26:13;;;;;;;13.30;4.35;;;;;;;18.58;69.97;97241.84;2074458;28;20730;-69
2022/10/28 18:27:15;;;;;;;14.05;3.55;;;;;;;18.53;70.09;97235.19;2077261;28;20229;-69
2022/10/28 18:28:16;;;;;;;15.10;3.70;;;;;;;18.41;71.02;97240.34;2075422;28;20232;-69
2022/10/28 18:29:18;;;;;;;12.63;3.80;;;;;;;18.34;71.49;97238.22;2076370;28;20228;-69
2022/10/28 18:30:22;;;;;;;17.33;4.10;;;;;;;18.30;71.60;97242.00;2073512;28;20252;-69
2022/10/28 18:31:24;;;;;;;16.20;3.40;;;;;;;18.45;70.11;97243.66;2072184;28;20289;-69
2022/10/28 18:32:26;;;;;;;16.63;3.72;;;;;;;18.50;69.98;97248.59;2073079;28;20228;-69
2022/10/28 18:33:34;;;;;;;21.58;5.45;;;;;;;18.52;70.03;97242.25;2074578;28;20233;-69
2022/10/28 18:34:35;;;;;;;14.07;3.60;;;;;;;18.52;69.92;97238.78;2073237;28;20202;-69
2022/10/28 18:35:37;;;;;;;12.13;3.00;;;;;;;18.56;70.04;97245.56;2071843;28;20793;-69
2022/10/28 18:36:38;;;;;;;12.50;3.40;;;;;;;18.50;70.01;97238.03;2076103;28;20710;-69
2022/10/28 18:37:40;;;;;;;9.43;2.75;;;;;;;18.53;69.92;97243.13;2077527;28;20197;-69
2022/10/28 18:38:41;;;;;;;15.15;3.72;;;;;;;18.53;69.76;97240.47;2075452;28;20212;-68
2022/10/28 18:39:43;;;;;;;14.20;3.50;;;;;;;18.53;70.14;97245.78;2072520;28;20304;-69
2022/10/28 18:40:45;;;;;;;17.45;3.63;;;;;;;18.50;70.18;97246.81;2074334;28;20744;-69
2022/10/28 18:41:47;;;;;;;13.80;4.05;;;;;;;18.52;70.03;97246.72;2076584;28;20292;-69
2022/10/28 18:42:52;;;;;;;12.38;2.45;;;;;;;18.52;70.21;97250.19;2069447;28;20212;-69
